Forside
METAR-TAF:

METAR-TAF

Lufthavne :

Langlade County Airport

Antigo, Wisconsin, USA

Breddekreds: 45-09-15N, længdekreds: 89-06-39W, højde: 464 m

Aktuelle vejr

Denne rapport blev lavet for 16 minutter siden, kl. 19:55 UTC
Vind 6 kt fra sydvest
Temperatur 3°C
Fugtighed 56%
Tryk 1014 hPa
Sigt: 16.1 km
skyfri

METAR: KAIG 221955Z AUTO 23006KT 10SM CLR 03/M05 A2995 RMK AO2 T00311049

Tid: 14:11 (20:11 UTC)


TAF: fraværende

Vejrobservationer og prognoser fra mere end 4000 lufthavne (METAR og TAF).

De gule og røde prikker repræsenterer de meteorologiske stationer.

Flyt musen over at se navnet på stationen.

Så klik over at se vejr observationer og prognoser.

At skifte det kort: Klik på de grønne knapper med et sort kors for at zoome ind; på den grønne knap med en bindestreg for at zoome ud; eller på de grønne pile for tilstødende kort.


METAR-TAF: